sensor_id;sensor_type;location;lat;lon;timestamp;pressure;altitude;pressure_sealevel;temperature;humidity
36192;BME280;22233;42.708;23.360;2022-08-20T00:00:16;95034.75;;;25.48;50.54
36192;BME280;22233;42.708;23.360;2022-08-20T00:02:46;95042.75;;;25.43;50.87
36192;BME280;22233;42.708;23.360;2022-08-20T00:05:13;95034.09;;;25.06;51.45
36192;BME280;22233;42.708;23.360;2022-08-20T00:07:39;95050.19;;;25.22;51.28
36192;BME280;22233;42.708;23.360;2022-08-20T00:10:05;95037.97;;;25.43;50.72
36192;BME280;22233;42.708;23.360;2022-08-20T00:12:32;95040.81;;;25.67;50.22
36192;BME280;22233;42.708;23.360;2022-08-20T00:14:58;95035.53;;;25.76;49.96
36192;BME280;22233;42.708;23.360;2022-08-20T00:17:23;95039.03;;;25.80;50.09
36192;BME280;22233;42.708;23.360;2022-08-20T00:19:49;95043.19;;;25.68;50.31
36192;BME280;22233;42.708;23.360;2022-08-20T00:22:14;95043.38;;;25.58;50.22
36192;BME280;22233;42.708;23.360;2022-08-20T00:24:40;95049.44;;;25.76;50.19
36192;BME280;22233;42.708;23.360;2022-08-20T00:27:05;95041.47;;;25.78;50.25
36192;BME280;22233;42.708;23.360;2022-08-20T00:29:31;95040.38;;;25.72;50.39
36192;BME280;22233;42.708;23.360;2022-08-20T00:31:56;95037.44;;;25.56;50.65
36192;BME280;22233;42.708;23.360;2022-08-20T00:34:21;95033.28;;;25.40;50.78
36192;BME280;22233;42.708;23.360;2022-08-20T00:36:47;95041.44;;;25.51;50.66
36192;BME280;22233;42.708;23.360;2022-08-20T00:39:12;95026.81;;;25.47;50.63
36192;BME280;22233;42.708;23.360;2022-08-20T00:41:38;95040.47;;;25.65;50.44
36192;BME280;22233;42.708;23.360;2022-08-20T00:44:12;95046.44;;;25.63;50.07
36192;BME280;22233;42.708;23.360;2022-08-20T00:46:39;95033.13;;;25.20;51.39
36192;BME280;22233;42.708;23.360;2022-08-20T00:49:15;95017.00;;;25.08;51.55
36192;BME280;22233;42.708;23.360;2022-08-20T00:51:50;95020.19;;;25.06;51.72
36192;BME280;22233;42.708;23.360;2022-08-20T00:54:40;95032.22;;;25.30;51.20
36192;BME280;22233;42.708;23.360;2022-08-20T00:57:11;95027.19;;;25.22;51.42
36192;BME280;22233;42.708;23.360;2022-08-20T00:59:39;95021.88;;;25.31;51.06
36192;BME280;22233;42.708;23.360;2022-08-20T01:02:08;95020.41;;;25.23;51.02
36192;BME280;22233;42.708;23.360;2022-08-20T01:04:36;95006.66;;;25.39;50.68
36192;BME280;22233;42.708;23.360;2022-08-20T01:07:04;95024.81;;;25.75;50.38
36192;BME280;22233;42.708;23.360;2022-08-20T01:09:30;95002.84;;;25.57;50.54
36192;BME280;22233;42.708;23.360;2022-08-20T01:11:56;95016.22;;;25.65;50.59
36192;BME280;22233;42.708;23.360;2022-08-20T01:14:22;95012.66;;;25.38;51.15
36192;BME280;22233;42.708;23.360;2022-08-20T01:16:50;95010.94;;;25.47;50.71
36192;BME280;22233;42.708;23.360;2022-08-20T01:19:23;94997.50;;;25.11;51.54
36192;BME280;22233;42.708;23.360;2022-08-20T01:21:52;95000.16;;;24.91;51.96
36192;BME280;22233;42.708;23.360;2022-08-20T01:24:37;94992.94;;;25.28;51.15
36192;BME280;22233;42.708;23.360;2022-08-20T01:27:06;95006.78;;;25.32;51.46
36192;BME280;22233;42.708;23.360;2022-08-20T01:29:38;94993.34;;;25.27;51.22
36192;BME280;22233;42.708;23.360;2022-08-20T01:32:04;95000.66;;;25.44;50.94
36192;BME280;22233;42.708;23.360;2022-08-20T01:34:30;94991.84;;;25.49;50.63
36192;BME280;22233;42.708;23.360;2022-08-20T01:36:56;94992.03;;;25.04;51.81
36192;BME280;22233;42.708;23.360;2022-08-20T01:39:25;94989.00;;;24.95;51.95
36192;BME280;22233;42.708;23.360;2022-08-20T01:44:35;94989.56;;;25.41;50.81
36192;BME280;22233;42.708;23.360;2022-08-20T01:47:11;95001.66;;;24.96;52.03
36192;BME280;22233;42.708;23.360;2022-08-20T01:49:41;94993.66;;;25.02;51.89
36192;BME280;22233;42.708;23.360;2022-08-20T01:52:10;94978.88;;;24.78;52.67
36192;BME280;22233;42.708;23.360;2022-08-20T01:54:37;94976.44;;;24.83;52.30
36192;BME280;22233;42.708;23.360;2022-08-20T01:57:12;94965.09;;;24.67;52.67
36192;BME280;22233;42.708;23.360;2022-08-20T01:59:38;94958.50;;;24.88;52.27
36192;BME280;22233;42.708;23.360;2022-08-20T02:02:03;94980.50;;;24.75;52.82
36192;BME280;22233;42.708;23.360;2022-08-20T02:04:29;94980.72;;;24.57;53.13
36192;BME280;22233;42.708;23.360;2022-08-20T02:06:57;94973.34;;;24.40;53.55
36192;BME280;22233;42.708;23.360;2022-08-20T02:09:26;94968.97;;;24.39;53.75
36192;BME280;22233;42.708;23.360;2022-08-20T02:11:52;94975.63;;;24.52;53.47
36192;BME280;22233;42.708;23.360;2022-08-20T02:14:17;94969.34;;;24.41;53.60
36192;BME280;22233;42.708;23.360;2022-08-20T02:16:44;94980.91;;;24.36;53.81
36192;BME280;22233;42.708;23.360;2022-08-20T02:20:00;94964.88;;;24.54;53.47
36192;BME280;22233;42.708;23.360;2022-08-20T02:22:10;94986.88;;;24.34;54.31
36192;BME280;22233;42.708;23.360;2022-08-20T02:24:38;94970.66;;;24.67;53.14
36192;BME280;22233;42.708;23.360;2022-08-20T02:27:03;94978.47;;;24.45;53.58
36192;BME280;22233;42.708;23.360;2022-08-20T02:29:29;94969.44;;;24.33;53.87
36192;BME280;22233;42.708;23.360;2022-08-20T02:31:54;94958.78;;;23.90;55.09
36192;BME280;22233;42.708;23.360;2022-08-20T02:34:20;94979.91;;;24.19;54.71
36192;BME280;22233;42.708;23.360;2022-08-20T02:36:45;94955.66;;;23.85;55.02
36192;BME280;22233;42.708;23.360;2022-08-20T02:39:13;94962.09;;;23.71;55.67
36192;BME280;22233;42.708;23.360;2022-08-20T02:41:39;94976.56;;;23.97;55.28
36192;BME280;22233;42.708;23.360;2022-08-20T02:44:06;94975.44;;;23.90;55.30
36192;BME280;22233;42.708;23.360;2022-08-20T02:46:33;94973.59;;;24.15;54.76
36192;BME280;22233;42.708;23.360;2022-08-20T02:48:58;94985.41;;;24.22;55.08
36192;BME280;22233;42.708;23.360;2022-08-20T02:51:24;94977.31;;;24.39;54.17
36192;BME280;22233;42.708;23.360;2022-08-20T02:53:50;94981.16;;;24.52;54.02
36192;BME280;22233;42.708;23.360;2022-08-20T02:56:17;94981.09;;;24.59;53.74
36192;BME280;22233;42.708;23.360;2022-08-20T02:58:43;94986.66;;;24.59;53.81
36192;BME280;22233;42.708;23.360;2022-08-20T03:01:12;94992.41;;;24.76;53.48
36192;BME280;22233;42.708;23.360;2022-08-20T03:03:39;94984.06;;;24.76;53.35
36192;BME280;22233;42.708;23.360;2022-08-20T03:06:07;94985.94;;;24.86;53.04
36192;BME280;22233;42.708;23.360;2022-08-20T03:08:33;94982.38;;;24.85;53.02
36192;BME280;22233;42.708;23.360;2022-08-20T03:10:59;94986.28;;;24.88;53.22
36192;BME280;22233;42.708;23.360;2022-08-20T03:13:25;94990.59;;;24.58;54.03
36192;BME280;22233;42.708;23.360;2022-08-20T03:15:53;94979.97;;;24.49;54.14
36192;BME280;22233;42.708;23.360;2022-08-20T03:18:19;94989.00;;;24.61;54.00
36192;BME280;22233;42.708;23.360;2022-08-20T03:20:46;94963.72;;;24.48;54.32
36192;BME280;22233;42.708;23.360;2022-08-20T03:23:12;94976.22;;;24.67;53.78
36192;BME280;22233;42.708;23.360;2022-08-20T03:25:38;94973.78;;;24.72;53.86
36192;BME280;22233;42.708;23.360;2022-08-20T03:28:04;94975.09;;;24.61;54.15
36192;BME280;22233;42.708;23.360;2022-08-20T03:30:30;94971.69;;;24.46;54.41
36192;BME280;22233;42.708;23.360;2022-08-20T03:32:56;94978.53;;;24.38;54.81
36192;BME280;22233;42.708;23.360;2022-08-20T03:35:23;94991.63;;;24.37;55.00
36192;BME280;22233;42.708;23.360;2022-08-20T03:37:49;94974.06;;;24.47;54.64
36192;BME280;22233;42.708;23.360;2022-08-20T03:40:29;94983.94;;;24.48;54.71
36192;BME280;22233;42.708;23.360;2022-08-20T03:42:55;94979.22;;;24.45;54.65
36192;BME280;22233;42.708;23.360;2022-08-20T03:45:22;94989.53;;;24.83;54.05
36192;BME280;22233;42.708;23.360;2022-08-20T03:47:49;94993.38;;;24.58;54.50
36192;BME280;22233;42.708;23.360;2022-08-20T03:50:18;95003.22;;;24.66;54.19
36192;BME280;22233;42.708;23.360;2022-08-20T03:52:43;94976.13;;;24.40;54.59
36192;BME280;22233;42.708;23.360;2022-08-20T03:55:09;95002.41;;;24.69;54.31
36192;BME280;22233;42.708;23.360;2022-08-20T03:57:41;94998.22;;;24.50;54.99
36192;BME280;22233;42.708;23.360;2022-08-20T04:00:07;95004.06;;;24.22;55.26
36192;BME280;22233;42.708;23.360;2022-08-20T04:02:33;94992.19;;;24.21;55.34
36192;BME280;22233;42.708;23.360;2022-08-20T04:04:58;95002.81;;;24.26;55.50
36192;BME280;22233;42.708;23.360;2022-08-20T04:07:24;94993.78;;;24.57;54.49
36192;BME280;22233;42.708;23.360;2022-08-20T04:09:56;94993.72;;;24.64;54.52
36192;BME280;22233;42.708;23.360;2022-08-20T04:12:22;95011.09;;;24.71;54.21
36192;BME280;22233;42.708;23.360;2022-08-20T04:14:49;95003.41;;;24.83;54.00
36192;BME280;22233;42.708;23.360;2022-08-20T04:17:16;94986.47;;;24.74;53.87
36192;BME280;22233;42.708;23.360;2022-08-20T04:19:42;95005.00;;;24.84;54.25
36192;BME280;22233;42.708;23.360;2022-08-20T04:22:08;95004.06;;;24.63;54.68
36192;BME280;22233;42.708;23.360;2022-08-20T04:24:34;95009.75;;;24.49;54.92
36192;BME280;22233;42.708;23.360;2022-08-20T04:27:01;95008.22;;;24.41;55.24
36192;BME280;22233;42.708;23.360;2022-08-20T04:29:28;95009.69;;;24.56;55.14
36192;BME280;22233;42.708;23.360;2022-08-20T04:31:53;95016.34;;;24.62;55.00
36192;BME280;22233;42.708;23.360;2022-08-20T04:34:20;95007.56;;;24.67;54.92
36192;BME280;22233;42.708;23.360;2022-08-20T04:36:46;95007.56;;;24.67;54.59
36192;BME280;22233;42.708;23.360;2022-08-20T04:39:15;95008.97;;;24.83;54.44
36192;BME280;22233;42.708;23.360;2022-08-20T04:41:41;95014.25;;;24.74;54.58
36192;BME280;22233;42.708;23.360;2022-08-20T04:44:08;94998.38;;;24.74;54.50
36192;BME280;22233;42.708;23.360;2022-08-20T04:46:36;95009.78;;;24.83;54.33
36192;BME280;22233;42.708;23.360;2022-08-20T04:49:02;94992.03;;;24.74;54.58
36192;BME280;22233;42.708;23.360;2022-08-20T04:51:29;95002.47;;;24.93;54.25
36192;BME280;22233;42.708;23.360;2022-08-20T04:53:55;95003.72;;;24.92;54.74
36192;BME280;22233;42.708;23.360;2022-08-20T04:56:29;95009.13;;;24.68;54.69
36192;BME280;22233;42.708;23.360;2022-08-20T04:58:59;95015.72;;;24.44;55.40
36192;BME280;22233;42.708;23.360;2022-08-20T05:01:26;95021.53;;;24.60;55.24
36192;BME280;22233;42.708;23.360;2022-08-20T05:03:52;95003.03;;;24.81;54.70
36192;BME280;22233;42.708;23.360;2022-08-20T05:06:23;95014.25;;;24.74;55.09
36192;BME280;22233;42.708;23.360;2022-08-20T05:08:49;95007.16;;;24.69;54.73
36192;BME280;22233;42.708;23.360;2022-08-20T05:11:14;95016.31;;;25.00;54.12
36192;BME280;22233;42.708;23.360;2022-08-20T05:13:40;95003.38;;;24.52;54.89
36192;BME280;22233;42.708;23.360;2022-08-20T05:16:07;95020.03;;;25.17;54.21
36192;BME280;22233;42.708;23.360;2022-08-20T05:18:32;95019.78;;;25.39;53.63
36192;BME280;22233;42.708;23.360;2022-08-20T05:21:00;95019.69;;;25.46;53.39
36192;BME280;22233;42.708;23.360;2022-08-20T05:23:33;95021.31;;;25.43;53.93
36192;BME280;22233;42.708;23.360;2022-08-20T05:25:59;95006.47;;;25.26;54.01
36192;BME280;22233;42.708;23.360;2022-08-20T05:28:28;95005.88;;;25.39;54.18
36192;BME280;22233;42.708;23.360;2022-08-20T05:30:58;95004.94;;;25.18;54.38
36192;BME280;22233;42.708;23.360;2022-08-20T05:33:24;95004.38;;;25.34;54.00
36192;BME280;22233;42.708;23.360;2022-08-20T05:35:52;95001.75;;;25.20;54.58
36192;BME280;22233;42.708;23.360;2022-08-20T05:38:19;95009.34;;;25.46;54.10
36192;BME280;22233;42.708;23.360;2022-08-20T05:40:45;95006.47;;;25.54;53.59
36192;BME280;22233;42.708;23.360;2022-08-20T05:43:11;95005.75;;;25.73;53.05
36192;BME280;22233;42.708;23.360;2022-08-20T05:45:39;95002.34;;;25.89;52.90
36192;BME280;22233;42.708;23.360;2022-08-20T05:48:08;94999.84;;;25.98;52.84
36192;BME280;22233;42.708;23.360;2022-08-20T05:50:36;94997.84;;;25.99;52.41
36192;BME280;22233;42.708;23.360;2022-08-20T05:53:02;94988.59;;;25.78;52.76
36192;BME280;22233;42.708;23.360;2022-08-20T05:55:27;95006.53;;;26.01;52.45
36192;BME280;22233;42.708;23.360;2022-08-20T05:58:01;94984.94;;;26.08;52.41
36192;BME280;22233;42.708;23.360;2022-08-20T06:00:28;95005.09;;;26.16;52.85
36192;BME280;22233;42.708;23.360;2022-08-20T06:02:54;94996.00;;;26.36;52.09
36192;BME280;22233;42.708;23.360;2022-08-20T06:05:38;94998.50;;;26.50;51.73
36192;BME280;22233;42.708;23.360;2022-08-20T06:08:05;94987.81;;;26.48;51.96
36192;BME280;22233;42.708;23.360;2022-08-20T06:10:30;94992.31;;;26.42;52.58
36192;BME280;22233;42.708;23.360;2022-08-20T06:12:56;94978.88;;;26.57;52.09
36192;BME280;22233;42.708;23.360;2022-08-20T06:15:21;94988.06;;;26.78;51.83
36192;BME280;22233;42.708;23.360;2022-08-20T06:17:47;94980.41;;;26.82;51.30
36192;BME280;22233;42.708;23.360;2022-08-20T06:20:12;95008.91;;;26.69;51.79
36192;BME280;22233;42.708;23.360;2022-08-20T06:22:37;94989.00;;;26.91;51.15
36192;BME280;22233;42.708;23.360;2022-08-20T06:25:05;95001.41;;;27.06;51.16
36192;BME280;22233;42.708;23.360;2022-08-20T06:27:31;94984.25;;;26.68;51.55
36192;BME280;22233;42.708;23.360;2022-08-20T06:29:57;95010.22;;;26.85;51.52
36192;BME280;22233;42.708;23.360;2022-08-20T06:32:24;95006.34;;;27.19;50.68
36192;BME280;22233;42.708;23.360;2022-08-20T06:34:51;94999.59;;;27.36;50.88
36192;BME280;22233;42.708;23.360;2022-08-20T06:37:24;94988.91;;;27.15;51.41
36192;BME280;22233;42.708;23.360;2022-08-20T06:39:51;94974.75;;;27.05;51.87
36192;BME280;22233;42.708;23.360;2022-08-20T06:42:17;94994.56;;;27.47;50.79
36192;BME280;22233;42.708;23.360;2022-08-20T06:44:44;94991.78;;;27.64;50.84
36192;BME280;22233;42.708;23.360;2022-08-20T06:47:18;94985.31;;;27.87;50.50
36192;BME280;22233;42.708;23.360;2022-08-20T06:49:44;94975.06;;;27.97;50.01
36192;BME280;22233;42.708;23.360;2022-08-20T06:52:10;94962.00;;;27.94;49.44
36192;BME280;22233;42.708;23.360;2022-08-20T06:54:36;94982.56;;;28.16;50.11
36192;BME280;22233;42.708;23.360;2022-08-20T06:57:02;94980.09;;;28.35;49.27
36192;BME280;22233;42.708;23.360;2022-08-20T06:59:28;94964.06;;;28.22;50.02
36192;BME280;22233;42.708;23.360;2022-08-20T07:01:54;94976.56;;;28.18;50.06
36192;BME280;22233;42.708;23.360;2022-08-20T07:04:22;94966.03;;;28.38;49.12
36192;BME280;22233;42.708;23.360;2022-08-20T07:06:47;94978.28;;;28.28;49.31
36192;BME280;22233;42.708;23.360;2022-08-20T07:09:16;94971.03;;;28.31;49.04
36192;BME280;22233;42.708;23.360;2022-08-20T07:11:42;94982.03;;;28.38;48.41
36192;BME280;22233;42.708;23.360;2022-08-20T07:14:08;94968.75;;;28.71;48.81
36192;BME280;22233;42.708;23.360;2022-08-20T07:16:34;94959.75;;;28.80;48.35
36192;BME280;22233;42.708;23.360;2022-08-20T07:18:59;94967.72;;;28.94;48.11
36192;BME280;22233;42.708;23.360;2022-08-20T07:21:24;94956.44;;;28.98;47.39
36192;BME280;22233;42.708;23.360;2022-08-20T07:23:50;94948.69;;;28.89;47.88
36192;BME280;22233;42.708;23.360;2022-08-20T07:26:17;94961.25;;;29.10;47.19
36192;BME280;22233;42.708;23.360;2022-08-20T07:28:43;94941.16;;;29.15;46.84
36192;BME280;22233;42.708;23.360;2022-08-20T07:31:09;94946.88;;;29.24;46.40
36192;BME280;22233;42.708;23.360;2022-08-20T07:33:53;94937.38;;;29.22;47.34
36192;BME280;22233;42.708;23.360;2022-08-20T07:36:19;94944.91;;;29.08;47.32
36192;BME280;22233;42.708;23.360;2022-08-20T07:38:44;94939.88;;;29.03;46.98
36192;BME280;22233;42.708;23.360;2022-08-20T07:41:12;94942.47;;;29.11;47.05
36192;BME280;22233;42.708;23.360;2022-08-20T07:43:40;94952.03;;;29.39;46.62
36192;BME280;22233;42.708;23.360;2022-08-20T07:46:06;94954.72;;;29.42;46.37
36192;BME280;22233;42.708;23.360;2022-08-20T07:48:37;94953.13;;;29.41;46.80
36192;BME280;22233;42.708;23.360;2022-08-20T07:51:05;94940.38;;;29.53;46.62
36192;BME280;22233;42.708;23.360;2022-08-20T07:53:32;94957.25;;;29.88;45.94
36192;BME280;22233;42.708;23.360;2022-08-20T07:56:00;94938.59;;;29.85;45.59
36192;BME280;22233;42.708;23.360;2022-08-20T07:58:25;94951.66;;;29.88;46.00
36192;BME280;22233;42.708;23.360;2022-08-20T08:00:51;94949.09;;;29.94;44.90
36192;BME280;22233;42.708;23.360;2022-08-20T08:03:17;94938.22;;;30.09;44.65
36192;BME280;22233;42.708;23.360;2022-08-20T08:05:44;94949.25;;;30.25;44.40
36192;BME280;22233;42.708;23.360;2022-08-20T08:08:14;94945.13;;;30.04;44.42
36192;BME280;22233;42.708;23.360;2022-08-20T08:10:42;94953.25;;;29.89;45.27
36192;BME280;22233;42.708;23.360;2022-08-20T08:13:09;94947.63;;;30.02;44.70
36192;BME280;22233;42.708;23.360;2022-08-20T08:15:39;94951.50;;;30.17;45.52
36192;BME280;22233;42.708;23.360;2022-08-20T08:18:27;94946.69;;;30.31;44.54
36192;BME280;22233;42.708;23.360;2022-08-20T08:20:54;94934.97;;;30.45;44.18
36192;BME280;22233;42.708;23.360;2022-08-20T08:23:21;94938.31;;;30.53;44.06
36192;BME280;22233;42.708;23.360;2022-08-20T08:25:47;94950.66;;;30.86;43.80
36192;BME280;22233;42.708;23.360;2022-08-20T08:28:16;94934.66;;;30.87;42.43
36192;BME280;22233;42.708;23.360;2022-08-20T08:30:43;94941.94;;;31.06;41.79
36192;BME280;22233;42.708;23.360;2022-08-20T08:33:25;94938.97;;;31.01;42.09
36192;BME280;22233;42.708;23.360;2022-08-20T08:36:16;94923.38;;;31.00;42.01
36192;BME280;22233;42.708;23.360;2022-08-20T08:38:43;94936.84;;;31.14;41.72
36192;BME280;22233;42.708;23.360;2022-08-20T08:41:25;94919.94;;;31.27;41.68
36192;BME280;22233;42.708;23.360;2022-08-20T08:44:02;94914.75;;;31.57;40.81
36192;BME280;22233;42.708;23.360;2022-08-20T08:46:31;94910.94;;;31.41;40.95
36192;BME280;22233;42.708;23.360;2022-08-20T08:48:59;94920.06;;;31.55;40.84
36192;BME280;22233;42.708;23.360;2022-08-20T08:51:49;94909.38;;;31.40;40.28
36192;BME280;22233;42.708;23.360;2022-08-20T08:54:21;94914.63;;;31.60;40.64
36192;BME280;22233;42.708;23.360;2022-08-20T08:56:49;94913.56;;;31.76;40.39
36192;BME280;22233;42.708;23.360;2022-08-20T08:59:15;94888.25;;;31.58;40.39
36192;BME280;22233;42.708;23.360;2022-08-20T09:01:47;94899.66;;;31.63;39.60
36192;BME280;22233;42.708;23.360;2022-08-20T09:04:13;94887.06;;;31.87;39.59
36192;BME280;22233;42.708;23.360;2022-08-20T09:06:40;94891.91;;;31.95;39.27
36192;BME280;22233;42.708;23.360;2022-08-20T09:09:14;94893.53;;;32.15;39.33
36192;BME280;22233;42.708;23.360;2022-08-20T09:11:47;94880.09;;;32.19;39.33
36192;BME280;22233;42.708;23.360;2022-08-20T09:14:13;94890.56;;;32.28;40.16
36192;BME280;22233;42.708;23.360;2022-08-20T09:16:38;94884.97;;;32.55;39.26
36192;BME280;22233;42.708;23.360;2022-08-20T09:19:04;94891.19;;;32.59;39.22
36192;BME280;22233;42.708;23.360;2022-08-20T09:21:29;94903.69;;;32.49;39.78
36192;BME280;22233;42.708;23.360;2022-08-20T09:23:55;94891.19;;;32.50;39.67
36192;BME280;22233;42.708;23.360;2022-08-20T09:26:20;94897.31;;;32.58;38.92
36192;BME280;22233;42.708;23.360;2022-08-20T09:28:45;94891.63;;;32.95;37.80
36192;BME280;22233;42.708;23.360;2022-08-20T09:31:11;94900.47;;;33.21;38.22
36192;BME280;22233;42.708;23.360;2022-08-20T09:33:36;94888.25;;;33.24;37.76
36192;BME280;22233;42.708;23.360;2022-08-20T09:36:02;94891.97;;;33.30;37.13
36192;BME280;22233;42.708;23.360;2022-08-20T09:38:28;94883.94;;;33.47;36.95
36192;BME280;22233;42.708;23.360;2022-08-20T09:40:53;94867.66;;;33.18;37.29
36192;BME280;22233;42.708;23.360;2022-08-20T09:43:18;94884.59;;;33.42;36.89
36192;BME280;22233;42.708;23.360;2022-08-20T09:45:44;94870.66;;;33.48;36.69
36192;BME280;22233;42.708;23.360;2022-08-20T09:48:09;94884.31;;;33.73;36.45
36192;BME280;22233;42.708;23.360;2022-08-20T09:50:35;94868.88;;;33.59;36.33
36192;BME280;22233;42.708;23.360;2022-08-20T09:53:03;94869.97;;;33.62;36.35
36192;BME280;22233;42.708;23.360;2022-08-20T09:55:39;94876.81;;;33.70;35.81
36192;BME280;22233;42.708;23.360;2022-08-20T09:58:52;94860.06;;;33.42;37.11
36192;BME280;22233;42.708;23.360;2022-08-20T10:00:58;94870.84;;;33.77;36.36
36192;BME280;22233;42.708;23.360;2022-08-20T10:03:24;94866.03;;;33.93;35.81
36192;BME280;22233;42.708;23.360;2022-08-20T10:05:50;94867.34;;;34.07;35.23
36192;BME280;22233;42.708;23.360;2022-08-20T10:08:15;94862.06;;;33.99;35.03
36192;BME280;22233;42.708;23.360;2022-08-20T10:10:41;94861.19;;;34.17;35.33
36192;BME280;22233;42.708;23.360;2022-08-20T10:13:06;94882.22;;;34.07;34.89
36192;BME280;22233;42.708;23.360;2022-08-20T10:15:32;94863.28;;;34.08;34.80
36192;BME280;22233;42.708;23.360;2022-08-20T10:17:57;94861.59;;;34.25;34.26
36192;BME280;22233;42.708;23.360;2022-08-20T10:20:28;94860.72;;;34.19;35.71
36192;BME280;22233;42.708;23.360;2022-08-20T10:22:53;94856.44;;;34.24;35.02
36192;BME280;22233;42.708;23.360;2022-08-20T10:25:19;94869.97;;;34.73;35.03
36192;BME280;22233;42.708;23.360;2022-08-20T10:27:44;94857.16;;;34.48;34.70
36192;BME280;22233;42.708;23.360;2022-08-20T10:30:10;94868.31;;;34.81;34.18
36192;BME280;22233;42.708;23.360;2022-08-20T10:32:36;94856.81;;;34.85;34.45
36192;BME280;22233;42.708;23.360;2022-08-20T10:35:02;94845.53;;;34.85;34.40
36192;BME280;22233;42.708;23.360;2022-08-20T10:37:28;94841.84;;;34.94;33.86
36192;BME280;22233;42.708;23.360;2022-08-20T10:39:53;94848.28;;;34.79;33.63
36192;BME280;22233;42.708;23.360;2022-08-20T10:42:19;94846.31;;;35.00;33.17
36192;BME280;22233;42.708;23.360;2022-08-20T10:44:45;94847.88;;;35.01;33.82
36192;BME280;22233;42.708;23.360;2022-08-20T10:49:39;94844.44;;;35.27;33.78
36192;BME280;22233;42.708;23.360;2022-08-20T10:52:04;94842.53;;;35.04;33.01
36192;BME280;22233;42.708;23.360;2022-08-20T10:54:30;94834.84;;;35.04;33.56
36192;BME280;22233;42.708;23.360;2022-08-20T10:57:00;94843.09;;;35.08;33.48
36192;BME280;22233;42.708;23.360;2022-08-20T10:59:26;94840.28;;;35.08;33.47
36192;BME280;22233;42.708;23.360;2022-08-20T11:01:51;94846.00;;;35.13;33.21
36192;BME280;22233;42.708;23.360;2022-08-20T11:04:17;94841.06;;;34.93;32.98
36192;BME280;22233;42.708;23.360;2022-08-20T11:06:42;94804.97;;;34.83;32.79
36192;BME280;22233;42.708;23.360;2022-08-20T11:09:07;94830.47;;;34.88;32.79
36192;BME280;22233;42.708;23.360;2022-08-20T11:11:33;94839.59;;;34.83;32.44
36192;BME280;22233;42.708;23.360;2022-08-20T11:13:58;94827.75;;;34.94;32.10
36192;BME280;22233;42.708;23.360;2022-08-20T11:16:24;94832.19;;;35.00;32.18
36192;BME280;22233;42.708;23.360;2022-08-20T11:18:49;94829.19;;;35.19;31.96
36192;BME280;22233;42.708;23.360;2022-08-20T11:21:15;94823.94;;;35.12;32.54
36192;BME280;22233;42.708;23.360;2022-08-20T11:23:40;94814.88;;;35.23;31.48
36192;BME280;22233;42.708;23.360;2022-08-20T11:26:05;94795.91;;;35.08;31.34
36192;BME280;22233;42.708;23.360;2022-08-20T11:28:31;94807.75;;;35.27;31.72
36192;BME280;22233;42.708;23.360;2022-08-20T11:30:58;94799.09;;;35.31;30.98
36192;BME280;22233;42.708;23.360;2022-08-20T11:33:23;94796.03;;;34.84;32.31
36192;BME280;22233;42.708;23.360;2022-08-20T11:35:48;94781.34;;;34.80;31.80
36192;BME280;22233;42.708;23.360;2022-08-20T11:38:14;94774.91;;;34.94;31.37
36192;BME280;22233;42.708;23.360;2022-08-20T11:40:39;94785.03;;;34.56;32.81
36192;BME280;22233;42.708;23.360;2022-08-20T11:43:05;94786.13;;;34.74;32.17
36192;BME280;22233;42.708;23.360;2022-08-20T11:45:30;94771.63;;;34.66;31.49
36192;BME280;22233;42.708;23.360;2022-08-20T11:47:55;94762.69;;;34.68;31.60
36192;BME280;22233;42.708;23.360;2022-08-20T11:50:21;94770.06;;;34.80;30.98
36192;BME280;22233;42.708;23.360;2022-08-20T11:52:47;94761.50;;;34.74;30.26
36192;BME280;22233;42.708;23.360;2022-08-20T11:55:14;94766.63;;;34.91;30.64
36192;BME280;22233;42.708;23.360;2022-08-20T11:57:41;94780.22;;;35.07;31.48
36192;BME280;22233;42.708;23.360;2022-08-20T12:00:10;94766.16;;;34.92;30.87
36192;BME280;22233;42.708;23.360;2022-08-20T12:02:40;94771.97;;;35.04;30.81
36192;BME280;22233;42.708;23.360;2022-08-20T12:05:06;94765.53;;;35.18;30.47
36192;BME280;22233;42.708;23.360;2022-08-20T12:07:32;94770.91;;;35.16;31.30
36192;BME280;22233;42.708;23.360;2022-08-20T12:09:57;94773.53;;;35.05;31.98
36192;BME280;22233;42.708;23.360;2022-08-20T12:12:23;94763.81;;;35.06;31.63
36192;BME280;22233;42.708;23.360;2022-08-20T12:14:53;94762.66;;;34.97;31.74
36192;BME280;22233;42.708;23.360;2022-08-20T12:17:27;94766.09;;;35.07;31.41
36192;BME280;22233;42.708;23.360;2022-08-20T12:19:54;94784.13;;;35.10;32.10
36192;BME280;22233;42.708;23.360;2022-08-20T12:22:22;94772.94;;;35.00;32.19
36192;BME280;22233;42.708;23.360;2022-08-20T12:24:47;94766.06;;;34.87;31.99
36192;BME280;22233;42.708;23.360;2022-08-20T12:27:16;94784.53;;;34.58;33.28
36192;BME280;22233;42.708;23.360;2022-08-20T12:29:44;94782.00;;;34.60;33.32
36192;BME280;22233;42.708;23.360;2022-08-20T12:32:10;94784.72;;;34.54;32.97
36192;BME280;22233;42.708;23.360;2022-08-20T12:34:37;94793.19;;;34.54;32.74
36192;BME280;22233;42.708;23.360;2022-08-20T12:37:07;94785.78;;;34.57;33.23
36192;BME280;22233;42.708;23.360;2022-08-20T12:39:33;94776.09;;;34.43;33.17
36192;BME280;22233;42.708;23.360;2022-08-20T12:41:59;94776.38;;;34.45;36.49
36192;BME280;22233;42.708;23.360;2022-08-20T12:44:28;94802.19;;;34.29;37.16
36192;BME280;22233;42.708;23.360;2022-08-20T12:47:21;94806.69;;;33.72;40.28
36192;BME280;22233;42.708;23.360;2022-08-20T12:49:51;94807.66;;;33.45;42.18
36192;BME280;22233;42.708;23.360;2022-08-20T12:52:19;94816.41;;;31.97;47.11
36192;BME280;22233;42.708;23.360;2022-08-20T12:54:45;94827.81;;;31.25;49.25
36192;BME280;22233;42.708;23.360;2022-08-20T12:57:23;94808.59;;;30.83;50.55